createdAt,value
2019-05-20T00:00:20.435Z,92.80
2019-05-20T00:02:56.696Z,93.00
2019-05-20T00:05:32.979Z,93.40
2019-05-20T00:08:09.286Z,93.20
2019-05-20T00:10:45.636Z,93.00
2019-05-20T00:13:22.054Z,93.00
2019-05-20T00:15:58.340Z,93.10
2019-05-20T00:18:34.581Z,93.90
2019-05-20T00:21:10.767Z,93.90
2019-05-20T00:23:46.950Z,94.70
2019-05-20T00:26:23.329Z,94.70
2019-05-20T00:28:59.555Z,95.00
2019-05-20T00:31:35.756Z,94.80
2019-05-20T00:34:11.981Z,95.20
2019-05-20T00:36:48.267Z,95.50
2019-05-20T00:39:24.464Z,95.90
2019-05-20T00:42:00.705Z,96.50
2019-05-20T00:44:36.955Z,97.20
2019-05-20T00:47:13.153Z,97.20
2019-05-20T00:49:49.426Z,97.20
2019-05-20T00:52:25.656Z,97.20
2019-05-20T00:55:01.934Z,97.20
2019-05-20T00:57:38.192Z,97.20
2019-05-20T01:00:14.707Z,97.20
2019-05-20T01:02:56.855Z,97.20
2019-05-20T01:05:28.911Z,97.20
2019-05-20T01:08:05.475Z,97.20
2019-05-20T01:10:41.769Z,97.20
2019-05-20T01:13:17.997Z,97.20
2019-05-20T01:15:54.198Z,97.20
2019-05-20T01:18:30.625Z,97.20
2019-05-20T01:21:06.977Z,97.20
2019-05-20T01:23:43.269Z,97.20
2019-05-20T01:26:19.631Z,97.20
2019-05-20T01:28:55.825Z,97.20
2019-05-20T01:31:32.051Z,97.20
2019-05-20T01:34:08.313Z,97.20
2019-05-20T01:36:44.589Z,97.20
2019-05-20T01:39:20.888Z,97.20
2019-05-20T01:41:57.130Z,97.20
2019-05-20T01:44:33.402Z,97.20
2019-05-20T01:47:09.629Z,97.20
2019-05-20T01:49:45.886Z,97.20
2019-05-20T01:52:22.050Z,97.20
2019-05-20T01:54:58.346Z,97.20
2019-05-20T01:57:34.683Z,97.20
2019-05-20T02:00:11.899Z,97.20
2019-05-20T02:02:48.132Z,97.20
2019-05-20T02:05:24.397Z,97.20
2019-05-20T02:08:00.681Z,97.20
2019-05-20T02:10:36.874Z,97.20
2019-05-20T02:13:13.187Z,97.20
2019-05-20T02:15:53.745Z,97.20
2019-05-20T02:18:30.114Z,97.20
2019-05-20T02:21:06.354Z,97.20
2019-05-20T02:23:42.625Z,97.20
2019-05-20T02:26:18.954Z,97.20
2019-05-20T02:28:55.233Z,97.20
2019-05-20T02:31:31.502Z,97.20
2019-05-20T02:34:07.840Z,97.20
2019-05-20T02:36:44.009Z,97.20
2019-05-20T02:39:20.348Z,97.20
2019-05-20T02:41:56.578Z,97.20
2019-05-20T02:44:32.848Z,97.20
2019-05-20T02:47:09.049Z,97.20
2019-05-20T02:49:45.314Z,97.20
2019-05-20T02:52:21.634Z,97.20
2019-05-20T02:54:57.942Z,97.20
2019-05-20T02:57:34.126Z,97.20
2019-05-20T03:00:10.668Z,97.20
2019-05-20T03:02:46.951Z,97.20
2019-05-20T03:05:23.365Z,97.20
2019-05-20T03:07:59.703Z,97.20
2019-05-20T03:10:35.911Z,97.20
2019-05-20T03:13:12.231Z,97.20
2019-05-20T03:15:48.600Z,97.20
2019-05-20T03:18:24.917Z,97.20
2019-05-20T03:21:01.148Z,97.20
2019-05-20T03:23:37.673Z,97.20
2019-05-20T03:26:14.014Z,97.20
2019-05-20T03:28:50.334Z,97.20
2019-05-20T03:31:26.719Z,97.20
2019-05-20T03:34:02.964Z,97.20
2019-05-20T03:36:39.344Z,97.20
2019-05-20T03:39:15.696Z,97.20
2019-05-20T03:41:51.992Z,97.20
2019-05-20T03:44:28.286Z,97.20
2019-05-20T03:47:04.545Z,97.20
2019-05-20T03:49:40.871Z,97.20
2019-05-20T03:52:17.145Z,97.20
2019-05-20T03:54:53.370Z,97.20
2019-05-20T03:57:29.747Z,97.20
2019-05-20T04:00:07.075Z,97.20
2019-05-20T04:02:43.334Z,97.20
2019-05-20T04:05:19.764Z,97.20
2019-05-20T04:07:56.097Z,97.20
2019-05-20T04:10:32.361Z,97.20
2019-05-20T04:13:08.649Z,97.20
2019-05-20T04:15:44.950Z,97.20
2019-05-20T04:18:21.199Z,97.20
2019-05-20T04:20:57.527Z,97.20
2019-05-20T04:23:33.943Z,97.20
2019-05-20T04:26:10.233Z,97.20
2019-05-20T04:28:48.230Z,97.20
2019-05-20T04:31:24.414Z,97.20
2019-05-20T04:34:00.826Z,97.20
2019-05-20T04:36:37.203Z,97.20
2019-05-20T04:39:13.409Z,97.20
2019-05-20T04:41:49.757Z,97.20
2019-05-20T04:44:26.525Z,97.20
2019-05-20T04:47:03.241Z,97.20
2019-05-20T04:49:39.386Z,97.20
2019-05-20T04:52:15.670Z,97.20
2019-05-20T04:54:51.904Z,97.20
2019-05-20T04:57:28.167Z,97.20
2019-05-20T05:00:10.219Z,97.20
2019-05-20T05:02:46.528Z,97.20
2019-05-20T05:05:36.722Z,97.20
2019-05-20T05:08:01.190Z,97.20
2019-05-20T05:10:42.068Z,97.20
2019-05-20T05:13:20.095Z,97.20
2019-05-20T05:15:58.011Z,97.20
2019-05-20T05:18:39.668Z,97.20
2019-05-20T05:21:15.917Z,97.20
2019-05-20T05:23:59.368Z,97.20
2019-05-20T05:26:30.105Z,97.20
2019-05-20T05:29:06.332Z,96.00
2019-05-20T05:31:42.684Z,95.60
2019-05-20T05:34:18.970Z,95.10
2019-05-20T05:36:55.201Z,94.20
2019-05-20T05:39:31.720Z,92.40
2019-05-20T05:42:08.027Z,92.20
2019-05-20T05:44:44.246Z,92.10
2019-05-20T05:47:20.550Z,92.30
2019-05-20T05:49:56.831Z,92.50
2019-05-20T05:52:33.080Z,92.20
2019-05-20T05:55:09.358Z,91.40
2019-05-20T05:57:45.582Z,91.70
2019-05-20T06:00:23.353Z,89.70
2019-05-20T06:02:59.615Z,89.60
2019-05-20T06:05:35.893Z,90.10
2019-05-20T06:08:12.108Z,87.80
2019-05-20T06:10:48.392Z,89.10
2019-05-20T06:13:24.656Z,87.50
2019-05-20T06:16:01.003Z,88.10
2019-05-20T06:18:37.352Z,87.10
2019-05-20T06:24:18.179Z,88.20
2019-05-20T06:26:59.221Z,87.40
2019-05-20T06:29:36.953Z,87.70
2019-05-20T06:32:14.883Z,87.00
2019-05-20T06:38:07.568Z,87.20
2019-05-20T06:41:02.606Z,87.70
2019-05-20T06:43:43.152Z,87.10
2019-05-20T06:46:31.475Z,85.50
2019-05-20T06:49:09.231Z,85.50
2019-05-20T06:52:00.895Z,82.90
2019-05-20T06:54:40.775Z,82.70
2019-05-20T06:57:19.954Z,81.40
2019-05-20T06:59:59.306Z,81.80
2019-05-20T07:02:52.253Z,80.30
2019-05-20T07:05:44.771Z,80.00
2019-05-20T07:08:21.011Z,81.00
2019-05-20T07:10:57.260Z,80.00
2019-05-20T07:13:33.616Z,80.60
2019-05-20T07:16:10.122Z,80.60
2019-05-20T07:18:46.424Z,80.50
2019-05-20T07:21:22.626Z,79.20
2019-05-20T07:23:58.926Z,79.30
2019-05-20T07:26:35.214Z,78.70
2019-05-20T07:29:11.577Z,78.30
2019-05-20T07:31:47.842Z,79.20
2019-05-20T07:34:24.145Z,78.50
2019-05-20T07:37:03.723Z,78.10
2019-05-20T07:39:38.404Z,78.90
2019-05-20T07:42:14.587Z,77.50
2019-05-20T07:44:50.814Z,77.00
2019-05-20T07:47:27.467Z,77.00
2019-05-20T07:50:06.896Z,76.50
2019-05-20T07:52:43.304Z,77.00
2019-05-20T07:55:19.953Z,78.10
2019-05-20T07:57:59.317Z,77.80
2019-05-20T08:00:36.118Z,78.60
2019-05-20T08:03:12.569Z,80.30
2019-05-20T08:05:48.882Z,81.80
2019-05-20T08:08:25.097Z,82.20
2019-05-20T08:11:01.306Z,83.30
2019-05-20T08:13:39.188Z,83.30
2019-05-20T08:16:15.614Z,82.90
2019-05-20T08:18:51.971Z,79.60
2019-05-20T08:21:28.263Z,79.50
2019-05-20T08:24:04.854Z,79.20
2019-05-20T08:26:41.250Z,80.70
2019-05-20T08:29:17.492Z,82.30
2019-05-20T08:31:53.689Z,83.50
2019-05-20T08:34:30.302Z,81.90
2019-05-20T08:37:06.933Z,82.20
2019-05-20T08:39:43.195Z,81.90
2019-05-20T08:42:19.625Z,83.50
2019-05-20T08:44:55.942Z,83.80
2019-05-20T08:47:33.044Z,84.00
2019-05-20T08:50:14.933Z,84.60
2019-05-20T08:52:47.411Z,84.40
2019-05-20T08:55:23.822Z,85.90
2019-05-20T08:58:10.803Z,85.90
2019-05-20T09:00:47.224Z,85.90
2019-05-20T09:03:23.443Z,86.00
2019-05-20T09:06:00.019Z,85.00
2019-05-20T09:08:43.069Z,85.00
2019-05-20T09:11:25.546Z,85.30
2019-05-20T09:14:03.605Z,84.50
2019-05-20T09:19:56.765Z,80.50
2019-05-20T09:22:37.798Z,80.90
2019-05-20T09:25:23.185Z,78.30
2019-05-20T09:28:00.389Z,76.80
2019-05-20T09:30:41.442Z,76.60
2019-05-20T09:33:23.808Z,74.30
2019-05-20T09:36:03.417Z,74.10
2019-05-20T09:38:41.358Z,77.00
2019-05-20T09:41:23.817Z,76.40
2019-05-20T09:44:02.013Z,78.40
2019-05-20T09:49:48.915Z,80.00
2019-05-20T09:52:33.621Z,81.90
2019-05-20T09:55:23.669Z,82.20
2019-05-20T09:58:09.180Z,82.20
2019-05-20T10:00:50.516Z,82.60
2019-05-20T10:03:34.719Z,82.70
2019-05-20T10:06:30.724Z,83.10
2019-05-20T10:09:08.503Z,81.80
2019-05-20T10:11:56.789Z,81.00
2019-05-20T10:14:40.712Z,81.00
2019-05-20T10:17:23.026Z,82.60
2019-05-20T10:19:59.293Z,81.20
2019-05-20T10:22:45.135Z,78.90
2019-05-20T10:25:21.382Z,77.80
2019-05-20T10:27:57.963Z,78.00
2019-05-20T10:30:34.442Z,74.90
2019-05-20T10:33:11.021Z,76.70
2019-05-20T10:35:47.385Z,77.10
2019-05-20T10:38:23.653Z,76.40
2019-05-20T10:40:59.922Z,77.00
2019-05-20T10:43:36.341Z,76.90
2019-05-20T10:46:12.518Z,78.50
2019-05-20T10:48:48.826Z,78.20
2019-05-20T10:51:25.631Z,78.40
2019-05-20T10:54:01.837Z,79.60
2019-05-20T10:56:38.122Z,81.00
2019-05-20T10:59:14.327Z,78.90
2019-05-20T11:01:50.557Z,78.90
2019-05-20T11:04:26.804Z,78.60
2019-05-20T11:07:03.162Z,80.70
2019-05-20T11:09:39.432Z,79.20
2019-05-20T11:12:15.737Z,78.70
2019-05-20T11:14:52.077Z,78.20
2019-05-20T11:17:28.318Z,79.10
2019-05-20T11:20:08.975Z,80.00
2019-05-20T11:22:45.192Z,82.50
2019-05-20T11:25:21.444Z,83.50
2019-05-20T11:27:57.637Z,83.90
2019-05-20T11:30:34.124Z,85.00
2019-05-20T11:33:10.500Z,85.70
2019-05-20T11:35:46.873Z,87.00
2019-05-20T11:38:23.197Z,89.20
2019-05-20T11:40:59.485Z,90.00
2019-05-20T11:43:36.080Z,92.10
2019-05-20T11:46:13.241Z,93.10
2019-05-20T11:48:49.620Z,93.70
2019-05-20T11:51:25.877Z,93.60
2019-05-20T11:54:04.865Z,93.60
2019-05-20T11:56:41.138Z,93.90
2019-05-20T11:59:19.316Z,95.10
2019-05-20T12:01:57.165Z,95.10
2019-05-20T12:04:33.418Z,95.20
2019-05-20T12:07:09.996Z,96.30
2019-05-20T12:09:49.443Z,96.00
2019-05-20T12:12:24.463Z,96.30
2019-05-20T12:15:00.920Z,97.20
2019-05-20T12:17:37.343Z,97.20
2019-05-20T12:20:13.721Z,97.20
2019-05-20T12:22:50.075Z,97.20
2019-05-20T12:25:26.251Z,97.20
2019-05-20T12:28:02.514Z,97.20
2019-05-20T12:30:38.714Z,97.20
2019-05-20T12:33:19.030Z,97.20
2019-05-20T12:35:52.901Z,97.20
2019-05-20T12:38:29.150Z,97.20
2019-05-20T12:41:05.397Z,97.20
2019-05-20T12:43:44.718Z,97.20
2019-05-20T12:46:19.672Z,97.20
2019-05-20T12:48:55.963Z,97.20
2019-05-20T12:51:32.280Z,97.20
2019-05-20T12:54:08.682Z,97.20
2019-05-20T12:56:45.066Z,97.20
2019-05-20T12:59:21.365Z,97.20
2019-05-20T13:01:57.815Z,97.20
2019-05-20T13:04:34.268Z,97.20
2019-05-20T13:07:10.838Z,97.20
2019-05-20T13:09:47.015Z,97.20
2019-05-20T13:12:23.415Z,97.20
2019-05-20T13:14:59.880Z,97.20
2019-05-20T13:17:36.354Z,97.20
2019-05-20T13:20:15.267Z,97.20
2019-05-20T13:22:51.578Z,97.20
2019-05-20T13:25:28.118Z,97.20
2019-05-20T13:28:04.608Z,97.20
2019-05-20T13:30:41.009Z,97.20
2019-05-20T13:33:17.612Z,97.20
2019-05-20T13:35:54.082Z,97.20
2019-05-20T13:38:31.992Z,97.20
2019-05-20T13:41:08.529Z,97.20
2019-05-20T13:43:45.002Z,97.20
2019-05-20T13:46:21.333Z,97.20
2019-05-20T13:48:57.596Z,97.20
2019-05-20T13:51:33.738Z,97.20
2019-05-20T13:54:10.394Z,97.20
2019-05-20T13:56:46.768Z,97.20
2019-05-20T13:59:23.112Z,97.20
2019-05-20T14:01:59.390Z,97.20
2019-05-20T14:04:35.664Z,97.20
2019-05-20T14:07:12.031Z,97.20
2019-05-20T14:09:48.413Z,97.20
2019-05-20T14:12:24.794Z,97.20
2019-05-20T14:15:01.390Z,97.20
2019-05-20T14:17:39.057Z,97.20
2019-05-20T14:20:16.028Z,97.20
2019-05-20T14:22:52.279Z,97.20
2019-05-20T14:25:29.371Z,97.20
2019-05-20T14:28:05.841Z,97.20
2019-05-20T14:30:42.102Z,97.20
2019-05-20T14:33:18.497Z,97.20
2019-05-20T14:35:54.796Z,97.20
2019-05-20T14:38:30.983Z,97.20
2019-05-20T14:41:21.021Z,97.20
2019-05-20T14:43:45.371Z,97.20
2019-05-20T14:46:21.611Z,97.20
2019-05-20T14:49:02.148Z,97.20
2019-05-20T14:51:35.770Z,97.20
2019-05-20T14:54:12.053Z,97.20
2019-05-20T14:56:48.400Z,97.20
2019-05-20T14:59:24.578Z,97.20
2019-05-20T15:02:13.102Z,97.20
2019-05-20T15:04:49.408Z,97.20
2019-05-20T15:07:29.916Z,97.20
2019-05-20T15:10:05.124Z,97.20
2019-05-20T15:12:41.449Z,97.20
2019-05-20T15:15:17.886Z,97.20
2019-05-20T15:17:54.275Z,97.20
2019-05-20T15:20:30.564Z,97.20
2019-05-20T15:23:06.893Z,97.20
2019-05-20T15:25:43.140Z,97.20
2019-05-20T15:28:19.698Z,97.20
2019-05-20T15:30:55.970Z,97.20
2019-05-20T15:33:32.155Z,97.20
2019-05-20T15:36:08.401Z,97.20
2019-05-20T15:38:44.706Z,97.20
2019-05-20T15:41:20.936Z,97.20
2019-05-20T15:43:57.251Z,97.20
2019-05-20T15:46:33.433Z,97.20
2019-05-20T15:49:09.667Z,97.20
2019-05-20T15:51:46.082Z,97.20
2019-05-20T15:54:22.567Z,97.20
2019-05-20T15:56:58.955Z,97.20
2019-05-20T15:59:45.380Z,97.20
2019-05-20T16:02:13.223Z,97.20
2019-05-20T16:04:49.671Z,97.20
2019-05-20T16:07:25.898Z,97.20
2019-05-20T16:10:02.169Z,97.20
2019-05-20T16:12:38.392Z,97.20
2019-05-20T16:15:14.893Z,97.20
2019-05-20T16:17:51.418Z,97.20
2019-05-20T16:20:27.825Z,97.20
2019-05-20T16:23:04.112Z,97.20
2019-05-20T16:25:40.351Z,97.20
2019-05-20T16:28:16.613Z,97.20
2019-05-20T16:30:52.895Z,97.20
2019-05-20T16:33:29.276Z,97.20
2019-05-20T16:36:05.440Z,97.20
2019-05-20T16:38:41.686Z,97.20
2019-05-20T16:41:17.907Z,97.20
2019-05-20T16:43:54.157Z,97.20
2019-05-20T16:46:30.437Z,97.20
2019-05-20T16:49:06.851Z,97.20
2019-05-20T16:51:43.104Z,97.20
2019-05-20T16:54:19.339Z,97.20
2019-05-20T16:56:55.561Z,97.20
2019-05-20T16:59:31.808Z,97.20
2019-05-20T17:02:08.758Z,97.20
2019-05-20T17:04:46.306Z,97.20
2019-05-20T17:07:22.559Z,97.20
2019-05-20T17:09:58.892Z,97.20
2019-05-20T17:12:35.152Z,97.20
2019-05-20T17:15:11.422Z,97.20
2019-05-20T17:17:47.837Z,97.20
2019-05-20T17:20:24.112Z,97.20
2019-05-20T17:23:00.526Z,97.20
2019-05-20T17:25:37.578Z,97.20
2019-05-20T17:28:13.933Z,97.20
2019-05-20T17:30:50.336Z,97.20
2019-05-20T17:33:26.781Z,97.20
2019-05-20T17:36:03.247Z,97.20
2019-05-20T17:38:39.429Z,97.20
2019-05-20T17:41:15.725Z,97.20
2019-05-20T17:43:52.027Z,97.20
2019-05-20T17:46:28.244Z,97.20
2019-05-20T17:49:06.236Z,97.20
2019-05-20T17:51:45.718Z,97.20
2019-05-20T17:54:24.773Z,97.20
2019-05-20T17:56:59.988Z,97.20
2019-05-20T17:59:36.238Z,97.20
2019-05-20T18:02:13.340Z,97.20
2019-05-20T18:04:49.582Z,97.20
2019-05-20T18:07:26.103Z,97.20
2019-05-20T18:10:02.648Z,97.20
2019-05-20T18:12:39.155Z,97.20
2019-05-20T18:15:17.119Z,97.20
2019-05-20T18:17:53.451Z,97.20
2019-05-20T18:20:29.798Z,97.20
2019-05-20T18:23:06.107Z,97.20
2019-05-20T18:25:42.334Z,97.20
2019-05-20T18:28:18.731Z,97.20
2019-05-20T18:30:56.539Z,97.20
2019-05-20T18:33:32.904Z,97.20
2019-05-20T18:36:09.373Z,97.20
2019-05-20T18:38:49.195Z,97.20
2019-05-20T18:41:23.494Z,97.20
2019-05-20T18:43:59.760Z,97.20
2019-05-20T18:46:36.134Z,97.20
2019-05-20T18:49:12.369Z,97.20
2019-05-20T18:51:49.205Z,97.20
2019-05-20T18:54:28.497Z,97.20
2019-05-20T18:57:05.049Z,97.20
2019-05-20T18:59:41.764Z,97.20
2019-05-20T19:02:18.753Z,97.20
2019-05-20T19:04:55.206Z,97.20
2019-05-20T19:07:31.514Z,97.20
2019-05-20T19:10:08.715Z,97.20
2019-05-20T19:12:45.055Z,97.20
2019-05-20T19:15:21.544Z,97.20
2019-05-20T19:17:57.824Z,97.20
2019-05-20T19:20:34.223Z,97.20
2019-05-20T19:23:10.725Z,97.20
2019-05-20T19:25:46.952Z,97.20
2019-05-20T19:28:23.372Z,97.20
2019-05-20T19:31:00.023Z,97.20
2019-05-20T19:33:36.248Z,97.20
2019-05-20T19:36:12.580Z,97.20
2019-05-20T19:38:48.841Z,97.20
2019-05-20T19:41:25.208Z,97.20
2019-05-20T19:44:01.791Z,97.20
2019-05-20T19:46:38.239Z,97.20
2019-05-20T19:49:14.860Z,97.20
2019-05-20T19:51:51.250Z,97.20
2019-05-20T19:54:27.676Z,97.20
2019-05-20T19:57:04.195Z,97.20
2019-05-20T19:59:40.474Z,97.20
2019-05-20T20:02:17.985Z,97.20
2019-05-20T20:04:54.535Z,97.20
2019-05-20T20:07:30.960Z,97.20
2019-05-20T20:10:07.540Z,97.20
2019-05-20T20:12:43.909Z,97.20
2019-05-20T20:15:20.627Z,97.20
2019-05-20T20:17:56.986Z,97.20
2019-05-20T20:20:33.340Z,97.20
2019-05-20T20:23:09.730Z,97.20
2019-05-20T20:25:51.725Z,97.20
2019-05-20T20:28:27.476Z,97.20
2019-05-20T20:31:03.905Z,97.20
2019-05-20T20:33:40.551Z,97.20
2019-05-20T20:36:16.831Z,97.20
2019-05-20T20:38:53.182Z,97.20
2019-05-20T20:41:29.673Z,97.20
2019-05-20T20:44:06.106Z,97.20
2019-05-20T20:46:42.555Z,97.20
2019-05-20T20:49:19.146Z,97.20
2019-05-20T20:51:55.495Z,97.20
2019-05-20T20:54:31.823Z,97.20
2019-05-20T20:57:08.247Z,97.20
2019-05-20T20:59:44.552Z,97.20
2019-05-20T21:02:20.889Z,97.20
2019-05-20T21:04:57.219Z,97.20
2019-05-20T21:07:33.573Z,97.20
2019-05-20T21:10:09.948Z,97.20
2019-05-20T21:12:46.244Z,97.20
2019-05-20T21:15:22.664Z,97.20
2019-05-20T21:17:59.060Z,97.20
2019-05-20T21:20:35.496Z,97.20
2019-05-20T21:23:12.095Z,97.20
2019-05-20T21:25:48.484Z,97.20
2019-05-20T21:28:24.870Z,97.20
2019-05-20T21:31:01.242Z,97.20
2019-05-20T21:33:37.690Z,97.20
2019-05-20T21:36:14.075Z,97.20
2019-05-20T21:38:50.614Z,97.20
2019-05-20T21:41:27.025Z,97.20
2019-05-20T21:44:03.452Z,97.20
2019-05-20T21:46:40.168Z,97.20
2019-05-20T21:49:16.575Z,97.20
2019-05-20T21:51:53.207Z,97.20
2019-05-20T21:54:29.612Z,97.20
2019-05-20T21:57:05.990Z,97.20
2019-05-20T21:59:42.357Z,97.20
2019-05-20T22:02:18.856Z,97.20
2019-05-20T22:04:55.737Z,97.20
2019-05-20T22:07:32.230Z,97.20
2019-05-20T22:10:09.122Z,97.20
2019-05-20T22:12:45.444Z,97.20
2019-05-20T22:15:21.796Z,97.20
2019-05-20T22:17:58.208Z,97.20
2019-05-20T22:20:34.517Z,97.20
2019-05-20T22:23:27.505Z,97.20
2019-05-20T22:26:03.953Z,97.20
2019-05-20T22:28:42.153Z,97.20
2019-05-20T22:31:18.095Z,97.20
2019-05-20T22:33:54.381Z,97.20
2019-05-20T22:36:30.754Z,97.20
2019-05-20T22:39:08.221Z,97.20
2019-05-20T22:41:45.020Z,97.20
2019-05-20T22:44:24.244Z,97.20
2019-05-20T22:47:00.548Z,97.20
2019-05-20T22:49:37.064Z,97.20
2019-05-20T22:52:13.567Z,97.20
2019-05-20T22:54:50.006Z,97.20
2019-05-20T22:57:26.479Z,97.20
2019-05-20T23:00:03.262Z,97.20
2019-05-20T23:02:39.641Z,97.20
2019-05-20T23:05:16.005Z,97.20
2019-05-20T23:07:52.397Z,97.20
2019-05-20T23:10:28.816Z,97.20
2019-05-20T23:13:05.154Z,97.20
2019-05-20T23:15:41.782Z,97.20
2019-05-20T23:18:18.332Z,97.20
2019-05-20T23:20:54.738Z,97.20
2019-05-20T23:23:31.083Z,97.20
2019-05-20T23:26:07.644Z,97.20
2019-05-20T23:28:44.095Z,97.20
2019-05-20T23:31:20.294Z,97.20
2019-05-20T23:34:11.459Z,97.20
2019-05-20T23:36:34.521Z,97.20
2019-05-20T23:39:11.032Z,97.20
2019-05-20T23:41:47.481Z,97.20
2019-05-20T23:44:23.879Z,97.20
2019-05-20T23:47:00.121Z,97.20
2019-05-20T23:49:36.560Z,97.20
2019-05-20T23:52:12.956Z,97.20
2019-05-20T23:54:49.372Z,97.20
2019-05-20T23:57:25.599Z,97.20
